createdAt,value
2022-11-27T00:00:45.021Z,21.15
2022-11-27T00:03:48.196Z,21.00
2022-11-27T00:06:50.736Z,21.00
2022-11-27T00:09:53.630Z,21.00
2022-11-27T00:12:56.023Z,19.70
2022-11-27T00:15:58.420Z,19.95
2022-11-27T00:19:00.946Z,20.48
2022-11-27T00:22:03.449Z,21.50
2022-11-27T00:25:06.391Z,20.75
2022-11-27T00:28:08.830Z,20.00
2022-11-27T00:31:20.443Z,20.60
2022-11-27T00:34:23.597Z,21.47
2022-11-27T00:37:26.046Z,22.38
2022-11-27T00:40:28.984Z,21.13
2022-11-27T00:43:39.829Z,20.42
2022-11-27T00:46:46.588Z,19.97
2022-11-27T00:49:49.107Z,20.75
2022-11-27T00:52:51.554Z,20.45
2022-11-27T00:55:55.378Z,20.43
2022-11-27T00:58:58.536Z,20.23
2022-11-27T01:02:01.179Z,19.30
2022-11-27T01:05:04.055Z,16.98
2022-11-27T01:08:06.448Z,19.17
2022-11-27T01:11:14.971Z,18.30
2022-11-27T01:14:18.770Z,18.80
2022-11-27T01:17:21.568Z,19.20
2022-11-27T01:20:24.354Z,17.70
2022-11-27T01:23:27.308Z,19.10
2022-11-27T01:26:29.998Z,20.23
2022-11-27T01:29:32.435Z,17.77
2022-11-27T01:32:34.795Z,17.60
2022-11-27T01:35:37.197Z,18.87
2022-11-27T01:38:40.328Z,17.88
2022-11-27T01:41:43.335Z,17.52
2022-11-27T01:44:50.082Z,17.85
2022-11-27T01:48:00.195Z,19.10
2022-11-27T01:51:02.785Z,17.83
2022-11-27T01:54:05.835Z,16.25
2022-11-27T01:57:15.497Z,17.20
2022-11-27T02:00:19.171Z,16.90
2022-11-27T02:03:22.299Z,17.60
2022-11-27T02:06:25.939Z,17.95
2022-11-27T02:09:30.385Z,17.13
2022-11-27T02:12:54.292Z,16.83
2022-11-27T02:15:59.749Z,17.80
2022-11-27T02:19:21.465Z,19.40
2022-11-27T02:22:52.843Z,16.38
2022-11-27T02:26:23.035Z,18.73
2022-11-27T02:29:31.509Z,22.20
2022-11-27T02:32:48.950Z,20.05
2022-11-27T02:35:59.048Z,19.70
2022-11-27T02:39:25.559Z,17.17
2022-11-27T02:42:33.847Z,17.58
2022-11-27T02:45:41.389Z,20.60
2022-11-27T02:48:48.403Z,21.53
2022-11-27T02:51:59.242Z,19.23
2022-11-27T02:55:06.213Z,19.90
2022-11-27T02:58:13.507Z,22.02
2022-11-27T03:01:18.619Z,20.70
2022-11-27T03:04:27.557Z,20.30
2022-11-27T03:07:42.026Z,21.10
2022-11-27T03:10:52.200Z,18.60
2022-11-27T03:13:59.072Z,20.15
2022-11-27T03:17:26.536Z,18.80
2022-11-27T03:20:38.948Z,19.60
2022-11-27T03:23:41.461Z,19.02
2022-11-27T03:26:44.048Z,18.85
2022-11-27T03:29:56.728Z,17.13
2022-11-27T03:32:59.550Z,18.20
2022-11-27T03:36:02.031Z,17.55
2022-11-27T03:39:05.065Z,17.63
2022-11-27T03:42:18.359Z,15.70
2022-11-27T03:45:23.434Z,16.75
2022-11-27T03:48:41.217Z,17.25
2022-11-27T03:51:56.853Z,15.90
2022-11-27T03:55:16.352Z,16.87
2022-11-27T03:58:28.133Z,16.10
2022-11-27T04:01:31.414Z,17.30
2022-11-27T04:04:33.909Z,16.52
2022-11-27T04:07:36.448Z,16.08
2022-11-27T04:10:38.801Z,15.40
2022-11-27T04:13:41.653Z,16.63
2022-11-27T04:16:44.154Z,14.90
2022-11-27T04:19:46.608Z,16.33
2022-11-27T04:22:49.347Z,16.17
2022-11-27T04:25:51.852Z,16.92
2022-11-27T04:28:55.026Z,16.88
2022-11-27T04:31:57.599Z,15.95
2022-11-27T04:35:00.126Z,15.67
2022-11-27T04:38:02.794Z,16.90
2022-11-27T04:41:05.354Z,15.77
2022-11-27T04:44:07.908Z,14.65
2022-11-27T04:47:10.296Z,15.07
2022-11-27T04:50:12.897Z,15.20
2022-11-27T04:53:15.556Z,16.42
2022-11-27T04:56:18.115Z,17.85
2022-11-27T04:59:20.622Z,17.83
2022-11-27T05:02:23.164Z,17.67
2022-11-27T05:05:25.682Z,17.48
2022-11-27T05:08:31.304Z,17.63
2022-11-27T05:11:34.353Z,18.67
2022-11-27T05:14:36.904Z,16.37
2022-11-27T05:17:39.365Z,15.17
2022-11-27T05:20:42.004Z,15.48
2022-11-27T05:23:44.620Z,15.27
2022-11-27T05:26:47.288Z,15.05
2022-11-27T05:29:49.970Z,17.00
2022-11-27T05:32:52.393Z,17.13
2022-11-27T05:35:54.852Z,16.05
2022-11-27T05:38:57.513Z,17.33
2022-11-27T05:42:00.246Z,16.73
2022-11-27T05:45:03.397Z,17.42
2022-11-27T05:48:05.836Z,17.38
2022-11-27T05:51:08.587Z,16.20
2022-11-27T05:54:11.032Z,16.23
2022-11-27T05:57:13.410Z,16.23
2022-11-27T06:00:16.482Z,15.98
2022-11-27T06:03:19.010Z,16.90
2022-11-27T06:06:21.860Z,16.80
2022-11-27T06:09:24.384Z,17.52
2022-11-27T06:12:27.045Z,17.80
2022-11-27T06:15:29.431Z,17.50
2022-11-27T06:18:31.973Z,18.67
2022-11-27T06:21:34.472Z,19.17
2022-11-27T06:24:37.220Z,18.20
2022-11-27T06:27:39.653Z,19.52
2022-11-27T06:30:42.601Z,19.30
2022-11-27T06:33:48.891Z,20.17
2022-11-27T06:36:51.352Z,19.92
2022-11-27T06:39:53.765Z,20.42
2022-11-27T06:42:57.144Z,19.65
2022-11-27T06:46:00.481Z,19.83
2022-11-27T06:49:03.721Z,20.38
2022-11-27T06:52:06.220Z,20.50
2022-11-27T06:55:08.843Z,21.30
2022-11-27T06:58:11.834Z,20.80
2022-11-27T07:01:17.820Z,21.10
2022-11-27T07:04:20.642Z,22.38
2022-11-27T07:07:23.177Z,20.35
2022-11-27T07:10:25.571Z,20.93
2022-11-27T07:13:29.740Z,21.13
2022-11-27T07:16:35.312Z,22.80
2022-11-27T07:19:37.863Z,23.35
2022-11-27T07:22:40.358Z,26.73
2022-11-27T07:25:42.956Z,31.37
2022-11-27T07:28:45.873Z,27.75
2022-11-27T07:31:50.560Z,65.88
2022-11-27T07:34:53.154Z,53.85
2022-11-27T07:37:55.550Z,52.70
2022-11-27T07:41:03.379Z,54.75
2022-11-27T07:44:06.164Z,38.47
2022-11-27T07:47:08.502Z,31.92
2022-11-27T07:50:11.712Z,27.47
2022-11-27T07:53:14.131Z,22.45
2022-11-27T07:56:16.948Z,21.45
2022-11-27T07:59:19.544Z,22.52
2022-11-27T08:02:22.132Z,21.30
2022-11-27T08:05:24.687Z,20.75
2022-11-27T08:08:27.216Z,22.10
2022-11-27T08:11:32.894Z,22.73
2022-11-27T08:14:35.392Z,21.80
2022-11-27T08:17:38.916Z,25.00
2022-11-27T08:20:41.456Z,24.70
2022-11-27T08:23:43.846Z,24.13
2022-11-27T08:26:46.611Z,21.77
2022-11-27T08:29:49.485Z,23.63
2022-11-27T08:32:52.018Z,24.42
2022-11-27T08:35:54.572Z,22.75
2022-11-27T08:43:56.824Z,21.90
2022-11-27T08:46:59.412Z,23.48
2022-11-27T08:50:02.445Z,24.02
2022-11-27T08:53:04.915Z,23.33
2022-11-27T08:56:11.678Z,22.13
2022-11-27T08:59:14.092Z,23.23
2022-11-27T09:02:17.277Z,25.17
2022-11-27T09:05:19.784Z,22.48
2022-11-27T09:08:22.320Z,23.60
2022-11-27T09:11:25.843Z,24.35
2022-11-27T09:14:28.261Z,27.20
2022-11-27T09:17:31.339Z,24.73
2022-11-27T09:20:34.590Z,23.37
2022-11-27T09:23:37.913Z,23.65
2022-11-27T09:26:40.870Z,24.23
2022-11-27T09:29:43.354Z,24.20
2022-11-27T09:32:45.851Z,22.87
2022-11-27T09:35:48.325Z,23.20
2022-11-27T09:38:51.329Z,23.27
2022-11-27T09:41:57.781Z,23.63
2022-11-27T09:45:00.856Z,24.55
2022-11-27T09:48:09.119Z,27.00
2022-11-27T09:51:28.313Z,25.73
2022-11-27T09:54:37.733Z,25.00
2022-11-27T09:57:41.930Z,25.27
2022-11-27T10:00:45.920Z,24.92
2022-11-27T10:03:48.443Z,25.57
2022-11-27T10:07:01.900Z,25.13
2022-11-27T10:10:25.869Z,24.23
2022-11-27T10:13:39.428Z,23.80
2022-11-27T10:16:57.462Z,22.38
2022-11-27T10:20:18.642Z,23.77
2022-11-27T10:23:46.953Z,24.73
2022-11-27T10:26:52.960Z,25.88
2022-11-27T10:29:57.654Z,24.92
2022-11-27T10:33:02.778Z,23.25
2022-11-27T10:36:10.700Z,23.33
2022-11-27T10:39:27.464Z,25.37
2022-11-27T10:42:46.019Z,27.77
2022-11-27T10:46:04.005Z,28.77
2022-11-27T10:49:06.667Z,25.25
2022-11-27T10:52:17.790Z,23.30
2022-11-27T10:55:42.305Z,24.23
2022-11-27T10:59:00.908Z,25.45
2022-11-27T11:02:05.735Z,27.73
2022-11-27T11:05:41.341Z,24.90
2022-11-27T11:08:47.463Z,24.53
2022-11-27T11:11:50.815Z,25.20
2022-11-27T11:14:59.141Z,26.60
2022-11-27T11:18:01.600Z,24.77
2022-11-27T11:21:07.716Z,24.80
2022-11-27T11:24:19.100Z,23.63
2022-11-27T11:27:27.191Z,23.10
2022-11-27T11:30:30.528Z,21.00
2022-11-27T11:33:58.764Z,21.65
2022-11-27T11:37:08.949Z,20.27
2022-11-27T11:40:16.332Z,19.60
2022-11-27T11:43:27.994Z,20.10
2022-11-27T11:46:33.719Z,18.95
2022-11-27T11:49:36.615Z,16.73
2022-11-27T11:53:00.606Z,13.88
2022-11-27T11:56:14.730Z,13.27
2022-11-27T11:59:33.923Z,14.10
2022-11-27T12:03:05.311Z,11.98
2022-11-27T12:06:16.913Z,16.35
2022-11-27T12:09:29.997Z,16.13
2022-11-27T12:12:50.893Z,13.40
2022-11-27T12:16:27.723Z,12.13
2022-11-27T12:19:52.106Z,12.57
2022-11-27T12:23:28.391Z,13.75
2022-11-27T12:27:01.891Z,14.68
2022-11-27T12:30:22.243Z,15.30
2022-11-27T12:33:50.216Z,14.23
2022-11-27T12:37:31.047Z,13.68
2022-11-27T12:40:48.464Z,14.20
2022-11-27T12:43:56.133Z,13.20
2022-11-27T12:47:09.822Z,13.43
2022-11-27T12:50:38.194Z,15.10
2022-11-27T12:53:58.787Z,17.15
2022-11-27T12:57:08.272Z,12.27
2022-11-27T13:00:23.291Z,11.98
2022-11-27T13:03:32.001Z,11.43
2022-11-27T13:06:42.079Z,14.20
2022-11-27T13:09:58.173Z,14.82
2022-11-27T13:13:14.734Z,12.30
2022-11-27T13:16:45.940Z,12.05
2022-11-27T13:19:51.007Z,12.50
2022-11-27T13:22:53.427Z,13.50
2022-11-27T13:25:57.112Z,12.43
2022-11-27T13:29:09.138Z,16.35
2022-11-27T13:32:31.682Z,17.95
2022-11-27T13:35:34.277Z,17.50
2022-11-27T13:38:42.086Z,16.30
2022-11-27T13:41:48.716Z,24.60
2022-11-27T13:44:57.931Z,18.38
2022-11-27T13:48:02.645Z,13.15
2022-11-27T13:51:08.284Z,11.30
2022-11-27T13:54:18.053Z,10.98
2022-11-27T13:57:24.040Z,12.00
2022-11-27T14:00:42.629Z,11.30
2022-11-27T14:03:45.552Z,12.27
2022-11-27T14:06:56.052Z,12.80
2022-11-27T14:10:09.071Z,12.93
2022-11-27T14:13:13.121Z,13.55
2022-11-27T14:16:28.414Z,14.85
2022-11-27T14:19:36.843Z,16.80
2022-11-27T14:23:13.894Z,18.13
2022-11-27T14:26:16.558Z,17.25
2022-11-27T14:29:23.734Z,16.67
2022-11-27T14:32:35.495Z,15.65
2022-11-27T14:35:38.000Z,16.17
2022-11-27T14:38:40.658Z,17.87
2022-11-27T14:41:43.087Z,18.08
2022-11-27T14:44:45.996Z,19.27
2022-11-27T14:47:54.925Z,18.95
2022-11-27T14:50:58.243Z,21.77
2022-11-27T14:54:10.930Z,19.40
2022-11-27T14:57:28.199Z,18.50
2022-11-27T15:00:32.456Z,22.85
2022-11-27T15:03:35.613Z,34.72
2022-11-27T15:06:44.816Z,42.90
2022-11-27T15:09:53.040Z,47.33
2022-11-27T15:12:56.393Z,58.65
2022-11-27T15:16:15.020Z,61.45
2022-11-27T15:19:28.837Z,53.25
2022-11-27T15:22:33.611Z,46.87
2022-11-27T15:25:42.749Z,36.73
2022-11-27T15:28:57.326Z,33.78
2022-11-27T15:32:00.034Z,32.40
2022-11-27T15:35:13.535Z,32.92
2022-11-27T15:38:18.294Z,31.73
2022-11-27T15:41:22.836Z,33.83
2022-11-27T15:44:26.905Z,32.53
2022-11-27T15:47:32.052Z,27.67
2022-11-27T15:50:34.878Z,28.13
2022-11-27T15:53:37.813Z,25.40
2022-11-27T15:56:40.755Z,24.40
2022-11-27T15:59:43.727Z,24.50
2022-11-27T16:02:46.219Z,24.40
2022-11-27T16:05:49.420Z,24.17
2022-11-27T16:08:56.088Z,22.97
2022-11-27T16:11:58.893Z,21.63
2022-11-27T16:15:01.301Z,19.75
2022-11-27T16:18:04.059Z,18.10
2022-11-27T16:21:09.191Z,16.20
2022-11-27T16:24:14.312Z,14.27
2022-11-27T16:27:16.863Z,12.10
2022-11-27T16:30:20.147Z,14.48
2022-11-27T16:33:31.304Z,24.63
2022-11-27T16:36:34.461Z,33.90
2022-11-27T16:39:38.067Z,32.23
2022-11-27T16:42:40.770Z,33.40
2022-11-27T16:45:43.810Z,31.10
2022-11-27T16:48:48.785Z,29.52
2022-11-27T16:51:52.505Z,48.10
2022-11-27T16:54:55.884Z,51.03
2022-11-27T16:57:59.483Z,43.92
2022-11-27T17:01:05.870Z,52.28
2022-11-27T17:04:10.266Z,61.03
2022-11-27T17:07:12.816Z,80.65
2022-11-27T17:10:16.111Z,76.68
2022-11-27T17:13:18.840Z,64.57
2022-11-27T17:16:21.965Z,57.13
2022-11-27T17:19:27.149Z,57.55
2022-11-27T17:22:30.872Z,49.47
2022-11-27T17:25:34.186Z,55.53
2022-11-27T17:28:38.992Z,49.00
2022-11-27T17:31:42.266Z,56.38
2022-11-27T17:34:48.566Z,64.57
2022-11-27T17:37:51.444Z,61.65
2022-11-27T17:41:01.014Z,55.83
2022-11-27T17:44:05.334Z,56.95
2022-11-27T17:47:07.934Z,54.03
2022-11-27T17:50:11.093Z,49.80
2022-11-27T17:53:14.039Z,44.27
2022-11-27T17:56:19.336Z,44.37
2022-11-27T17:59:22.330Z,50.50
2022-11-27T18:02:25.171Z,59.22
2022-11-27T18:05:28.075Z,53.45
2022-11-27T18:08:31.254Z,44.17
2022-11-27T18:11:34.228Z,48.30
2022-11-27T18:14:36.917Z,62.22
2022-11-27T18:17:40.582Z,78.25
2022-11-27T18:20:44.093Z,73.00
2022-11-27T18:24:22.024Z,56.80
2022-11-27T18:27:10.840Z,49.55
2022-11-27T18:30:13.858Z,44.80
2022-11-27T18:33:16.743Z,38.13
2022-11-27T18:36:19.907Z,29.60
2022-11-27T18:39:22.937Z,29.73
2022-11-27T18:42:26.762Z,38.37
2022-11-27T18:45:33.312Z,44.13
2022-11-27T18:48:38.554Z,52.05
2022-11-27T18:51:41.287Z,53.38
2022-11-27T18:54:44.656Z,49.75
2022-11-27T18:57:47.842Z,44.27
2022-11-27T19:00:51.736Z,41.80
2022-11-27T19:03:55.556Z,43.65
2022-11-27T19:06:59.030Z,45.67
2022-11-27T19:10:03.247Z,37.47
2022-11-27T19:13:07.450Z,46.13
2022-11-27T19:16:13.626Z,51.75
2022-11-27T19:22:46.331Z,49.43
2022-11-27T19:25:49.785Z,48.88
2022-11-27T19:28:59.978Z,40.80
2022-11-27T19:32:03.628Z,42.90
2022-11-27T19:35:09.455Z,43.13
2022-11-27T19:38:12.163Z,37.17
2022-11-27T19:41:17.342Z,38.95
2022-11-27T19:44:20.522Z,43.33
2022-11-27T19:47:24.252Z,38.43
2022-11-27T19:50:28.828Z,34.88
2022-11-27T19:53:31.786Z,34.60
2022-11-27T19:56:36.910Z,34.80
2022-11-27T19:59:40.370Z,34.93
2022-11-27T20:02:45.057Z,34.00
2022-11-27T20:05:48.758Z,29.42
2022-11-27T20:08:53.447Z,26.15
2022-11-27T20:11:56.535Z,35.47
2022-11-27T20:15:00.348Z,30.52
2022-11-27T20:18:04.896Z,34.22
2022-11-27T20:21:11.435Z,32.97
2022-11-27T20:24:14.959Z,30.93
2022-11-27T20:27:20.049Z,38.33
2022-11-27T20:30:23.128Z,32.10
2022-11-27T20:33:27.842Z,33.70
2022-11-27T20:36:32.163Z,31.58
2022-11-27T20:39:35.210Z,31.75
2022-11-27T20:42:37.971Z,32.33
2022-11-27T20:45:42.071Z,36.97
2022-11-27T20:48:50.217Z,38.47
2022-11-27T20:51:55.301Z,32.05
2022-11-27T20:54:58.673Z,34.97
2022-11-27T20:58:01.807Z,34.92
2022-11-27T21:01:15.717Z,35.83
2022-11-27T21:04:26.771Z,35.38
2022-11-27T21:07:29.772Z,35.63
2022-11-27T21:10:33.031Z,33.93
2022-11-27T21:13:35.681Z,32.33
2022-11-27T21:16:43.028Z,31.80
2022-11-27T21:19:46.853Z,30.10
2022-11-27T21:22:50.586Z,40.00
2022-11-27T21:25:53.267Z,48.35
2022-11-27T21:28:56.844Z,29.63
2022-11-27T21:31:59.894Z,26.00
2022-11-27T21:35:02.630Z,23.70
2022-11-27T21:38:05.048Z,26.35
2022-11-27T21:41:09.424Z,26.63
2022-11-27T21:44:13.488Z,24.97
2022-11-27T21:47:15.918Z,24.25
2022-11-27T21:50:18.937Z,29.90
2022-11-27T21:53:25.085Z,34.65
2022-11-27T21:56:30.048Z,27.33
2022-11-27T21:59:34.503Z,25.73
2022-11-27T22:02:37.579Z,22.15
2022-11-27T22:05:40.299Z,21.13
2022-11-27T22:08:45.467Z,21.13
2022-11-27T22:11:47.974Z,22.88
2022-11-27T22:14:50.916Z,23.25
2022-11-27T22:17:53.412Z,21.93
2022-11-27T22:20:56.519Z,23.10
2022-11-27T22:24:01.148Z,26.13
2022-11-27T22:27:03.759Z,26.07
2022-11-27T22:30:07.304Z,29.67
2022-11-27T22:33:09.915Z,29.73
2022-11-27T22:36:16.084Z,27.92
2022-11-27T22:39:18.579Z,28.63
2022-11-27T22:42:22.030Z,41.93
2022-11-27T22:45:24.710Z,32.28
2022-11-27T22:48:27.112Z,27.30
2022-11-27T22:51:32.840Z,22.90
2022-11-27T22:54:35.421Z,27.27
2022-11-27T22:57:38.109Z,25.17
2022-11-27T23:00:41.451Z,24.02
2022-11-27T23:03:43.989Z,24.17
2022-11-27T23:06:48.531Z,22.77
2022-11-27T23:09:51.876Z,29.35
2022-11-27T23:12:54.474Z,31.70
2022-11-27T23:15:56.931Z,28.48
2022-11-27T23:18:59.339Z,23.67
2022-11-27T23:22:01.799Z,23.90
2022-11-27T23:25:04.382Z,23.38
2022-11-27T23:28:07.369Z,23.10
2022-11-27T23:31:29.778Z,19.45
2022-11-27T23:34:32.707Z,20.52
2022-11-27T23:37:35.136Z,20.48
2022-11-27T23:40:39.383Z,22.70
2022-11-27T23:43:42.454Z,18.23
2022-11-27T23:46:44.913Z,16.67
2022-11-27T23:49:47.349Z,15.02
2022-11-27T23:52:49.805Z,13.73
2022-11-27T23:55:52.362Z,15.77
2022-11-27T23:58:56.422Z,16.27
